createdAt,value
2023-02-06T00:00:50.629Z,28.60
2023-02-06T00:03:17.451Z,34.20
2023-02-06T00:05:43.922Z,31.30
2023-02-06T00:08:10.499Z,30.20
2023-02-06T00:10:37.163Z,27.50
2023-02-06T00:13:03.872Z,27.20
2023-02-06T00:15:30.302Z,28.10
2023-02-06T00:17:56.868Z,26.10
2023-02-06T00:20:23.403Z,28.00
2023-02-06T00:22:49.814Z,28.30
2023-02-06T00:25:16.295Z,27.00
2023-02-06T00:27:42.965Z,27.10
2023-02-06T00:30:10.124Z,27.60
2023-02-06T00:32:37.244Z,26.30
2023-02-06T00:35:04.501Z,26.50
2023-02-06T00:37:31.190Z,24.10
2023-02-06T00:39:57.877Z,25.20
2023-02-06T00:42:24.359Z,24.90
2023-02-06T00:44:50.962Z,24.00
2023-02-06T00:47:17.499Z,24.30
2023-02-06T00:49:43.932Z,23.60
2023-02-06T00:52:10.681Z,24.50
2023-02-06T00:54:37.137Z,23.80
2023-02-06T00:57:03.760Z,23.60
2023-02-06T00:59:30.539Z,22.60
2023-02-06T01:01:57.070Z,23.00
2023-02-06T01:04:23.587Z,23.80
2023-02-06T01:06:50.034Z,23.80
2023-02-06T01:09:16.566Z,21.90
2023-02-06T01:11:43.062Z,24.30
2023-02-06T01:14:09.566Z,23.60
2023-02-06T01:16:36.058Z,23.50
2023-02-06T01:19:02.625Z,23.40
2023-02-06T01:21:29.264Z,29.40
2023-02-06T01:23:55.772Z,26.90
2023-02-06T01:26:25.881Z,25.70
2023-02-06T01:28:53.614Z,25.00
2023-02-06T01:31:28.926Z,24.80
2023-02-06T01:33:57.264Z,24.00
2023-02-06T01:36:24.169Z,24.50
2023-02-06T01:38:51.541Z,24.80
2023-02-06T01:41:20.222Z,24.90
2023-02-06T01:44:06.708Z,24.80
2023-02-06T01:46:33.773Z,23.40
2023-02-06T01:49:02.065Z,23.90
2023-02-06T01:51:30.604Z,24.60
2023-02-06T01:54:02.107Z,24.00
2023-02-06T01:59:01.011Z,22.30
2023-02-06T02:01:27.616Z,24.00
2023-02-06T02:03:58.100Z,22.70
2023-02-06T02:06:26.587Z,23.00
2023-02-06T02:08:58.246Z,23.70
2023-02-06T02:11:32.199Z,23.10
2023-02-06T02:14:00.549Z,24.30
2023-02-06T02:16:45.897Z,22.60
2023-02-06T02:19:18.507Z,24.20
2023-02-06T02:21:54.068Z,26.20
2023-02-06T02:24:43.627Z,24.80
2023-02-06T02:27:32.513Z,25.80
2023-02-06T02:30:11.345Z,24.60
2023-02-06T02:32:56.484Z,25.90
2023-02-06T02:35:32.127Z,25.30
2023-02-06T02:38:11.131Z,26.90
2023-02-06T02:40:55.233Z,25.20
2023-02-06T02:43:43.025Z,26.20
2023-02-06T02:46:51.293Z,25.50
2023-02-06T02:49:22.694Z,26.90
2023-02-06T02:51:51.118Z,27.10
2023-02-06T02:54:17.997Z,32.70
2023-02-06T02:56:45.049Z,34.10
2023-02-06T02:59:16.768Z,33.70
2023-02-06T03:01:50.179Z,29.80
2023-02-06T03:04:22.911Z,31.40
2023-02-06T03:07:12.342Z,30.50
2023-02-06T03:10:16.607Z,28.00
2023-02-06T03:12:54.147Z,27.40
2023-02-06T03:15:27.015Z,24.90
2023-02-06T03:18:26.322Z,26.80
2023-02-06T03:20:53.249Z,26.90
2023-02-06T03:23:29.518Z,25.80
2023-02-06T03:26:00.699Z,26.80
2023-02-06T03:28:33.709Z,30.20
2023-02-06T03:31:05.563Z,27.60
2023-02-06T03:33:37.941Z,25.40
2023-02-06T03:36:04.852Z,27.80
2023-02-06T03:38:32.469Z,39.00
2023-02-06T03:41:02.097Z,29.80
2023-02-06T03:43:30.407Z,28.00
2023-02-06T03:46:01.693Z,27.60
2023-02-06T03:51:06.426Z,26.40
2023-02-06T03:53:34.520Z,27.10
2023-02-06T03:56:07.914Z,27.10
2023-02-06T03:58:34.745Z,28.90
2023-02-06T04:01:04.096Z,26.50
2023-02-06T04:03:31.108Z,27.10
2023-02-06T04:05:57.639Z,26.80
2023-02-06T04:08:24.511Z,26.60
2023-02-06T04:10:51.037Z,25.30
2023-02-06T04:13:17.574Z,31.90
2023-02-06T04:15:44.008Z,26.70
2023-02-06T04:18:10.556Z,25.00
2023-02-06T04:20:37.194Z,27.90
2023-02-06T04:23:03.615Z,24.80
2023-02-06T04:25:30.170Z,25.00
2023-02-06T04:27:56.764Z,26.30
2023-02-06T04:30:23.500Z,25.40
2023-02-06T04:32:50.104Z,24.20
2023-02-06T04:35:16.844Z,23.60
2023-02-06T04:37:43.266Z,24.30
2023-02-06T04:40:11.002Z,26.90
2023-02-06T04:42:38.028Z,24.00
2023-02-06T04:45:04.900Z,23.80
2023-02-06T04:47:31.394Z,24.80
2023-02-06T04:49:58.034Z,24.60
2023-02-06T04:52:24.600Z,25.00
2023-02-06T04:54:51.123Z,23.30
2023-02-06T04:57:17.633Z,25.70
2023-02-06T04:59:44.098Z,26.60
2023-02-06T05:02:10.518Z,26.20
2023-02-06T05:04:37.223Z,24.30
2023-02-06T05:07:05.492Z,23.10
2023-02-06T05:09:32.281Z,23.70
2023-02-06T05:11:59.567Z,24.40
2023-02-06T05:14:26.179Z,24.30
2023-02-06T05:16:52.606Z,25.50
2023-02-06T05:19:19.160Z,23.70
2023-02-06T05:21:45.727Z,29.70
2023-02-06T05:24:13.056Z,29.30
2023-02-06T05:26:39.543Z,31.80
2023-02-06T05:29:06.341Z,32.20
2023-02-06T05:31:33.011Z,32.90
2023-02-06T05:33:59.629Z,26.90
2023-02-06T05:36:26.428Z,31.60
2023-02-06T05:38:52.918Z,31.50
2023-02-06T05:41:19.438Z,30.10
2023-02-06T05:43:46.394Z,30.80
2023-02-06T05:46:13.456Z,32.10
2023-02-06T05:48:40.494Z,33.60
2023-02-06T05:51:06.959Z,34.80
2023-02-06T05:53:33.480Z,35.40
2023-02-06T05:56:00.016Z,36.60
2023-02-06T05:58:26.869Z,31.30
2023-02-06T06:00:53.399Z,30.60
2023-02-06T06:03:19.941Z,34.00
2023-02-06T06:05:46.788Z,33.10
2023-02-06T06:08:13.330Z,34.80
2023-02-06T06:10:39.840Z,35.00
2023-02-06T06:13:06.346Z,32.00
2023-02-06T06:15:32.845Z,32.90
2023-02-06T06:17:59.552Z,46.60
2023-02-06T06:20:26.044Z,38.40
2023-02-06T06:22:52.445Z,34.60
2023-02-06T06:25:20.512Z,41.80
2023-02-06T06:27:47.051Z,39.80
2023-02-06T06:30:13.830Z,34.30
2023-02-06T06:32:40.363Z,38.30
2023-02-06T06:35:07.014Z,39.50
2023-02-06T06:37:33.549Z,35.40
2023-02-06T06:40:00.208Z,38.30
2023-02-06T06:42:26.730Z,42.20
2023-02-06T06:44:53.360Z,36.30
2023-02-06T06:47:19.901Z,41.40
2023-02-06T06:49:46.353Z,34.90
2023-02-06T06:52:23.984Z,35.90
2023-02-06T06:54:52.394Z,37.90
2023-02-06T06:57:19.777Z,40.60
2023-02-06T06:59:46.262Z,39.80
2023-02-06T07:02:12.869Z,34.30
2023-02-06T07:04:39.495Z,35.70
2023-02-06T07:07:06.916Z,34.90
2023-02-06T07:09:33.396Z,27.70
2023-02-06T07:12:00.419Z,26.70
2023-02-06T07:14:26.893Z,28.60
2023-02-06T07:16:53.352Z,28.00
2023-02-06T07:19:19.966Z,32.90
2023-02-06T07:21:46.609Z,30.60
2023-02-06T07:24:13.351Z,28.00
2023-02-06T07:26:39.866Z,27.40
2023-02-06T07:29:06.384Z,30.70
2023-02-06T07:31:32.923Z,23.90
2023-02-06T07:34:00.328Z,25.50
2023-02-06T07:36:26.752Z,28.20
2023-02-06T07:38:53.185Z,28.40
2023-02-06T07:41:19.612Z,24.50
2023-02-06T07:43:46.049Z,25.00
2023-02-06T07:46:12.672Z,26.80
2023-02-06T07:48:39.358Z,25.90
2023-02-06T07:51:09.545Z,25.70
2023-02-06T07:53:37.164Z,24.20
2023-02-06T07:56:13.719Z,22.50
2023-02-06T07:58:41.090Z,24.70
2023-02-06T08:01:07.798Z,25.20
2023-02-06T08:03:34.561Z,24.90
2023-02-06T08:06:01.218Z,22.70
2023-02-06T08:08:27.955Z,24.70
2023-02-06T08:10:54.405Z,24.90
2023-02-06T08:13:20.997Z,23.70
2023-02-06T08:15:47.470Z,23.40
2023-02-06T08:18:13.905Z,24.80
2023-02-06T08:20:40.378Z,22.40
2023-02-06T08:23:06.831Z,25.90
2023-02-06T08:25:33.477Z,24.90
2023-02-06T08:28:00.123Z,24.00
2023-02-06T08:30:26.833Z,22.40
2023-02-06T08:32:53.450Z,24.20
2023-02-06T08:35:20.039Z,21.80
2023-02-06T08:37:46.476Z,25.30
2023-02-06T08:40:13.063Z,23.90
2023-02-06T08:42:39.564Z,26.30
2023-02-06T08:45:06.750Z,26.80
2023-02-06T08:47:33.155Z,24.90
2023-02-06T08:50:02.102Z,24.90
2023-02-06T08:52:29.679Z,26.30
2023-02-06T08:54:56.075Z,24.40
2023-02-06T08:57:22.612Z,28.40
2023-02-06T08:59:49.054Z,26.80
2023-02-06T09:02:15.656Z,26.90
2023-02-06T09:04:42.241Z,24.40
2023-02-06T09:07:08.725Z,25.30
2023-02-06T09:09:35.182Z,22.70
2023-02-06T09:12:01.861Z,21.70
2023-02-06T09:14:28.271Z,19.50
2023-02-06T09:16:55.036Z,19.10
2023-02-06T09:19:21.918Z,18.10
2023-02-06T09:21:48.427Z,18.00
2023-02-06T09:24:14.900Z,17.50
2023-02-06T09:26:58.412Z,15.30
2023-02-06T09:29:25.295Z,13.80
2023-02-06T09:31:51.787Z,15.80
2023-02-06T09:34:18.355Z,14.00
2023-02-06T09:36:44.788Z,17.90
2023-02-06T09:39:11.409Z,25.00
2023-02-06T09:41:52.678Z,26.40
2023-02-06T09:44:33.558Z,16.90
2023-02-06T09:47:03.554Z,13.60
2023-02-06T09:49:44.454Z,17.20
2023-02-06T09:52:14.165Z,24.50
2023-02-06T09:54:57.278Z,23.00
2023-02-06T09:57:42.364Z,13.30
2023-02-06T10:00:28.701Z,12.10
2023-02-06T10:03:34.532Z,13.10
2023-02-06T10:06:24.777Z,13.10
2023-02-06T10:09:03.355Z,18.20
2023-02-06T10:12:01.462Z,15.90
2023-02-06T10:15:03.191Z,13.20
2023-02-06T10:17:37.049Z,11.20
2023-02-06T10:20:15.830Z,13.60
2023-02-06T10:22:51.251Z,14.40
2023-02-06T10:25:21.415Z,11.00
2023-02-06T10:27:56.674Z,14.70
2023-02-06T10:31:02.526Z,12.20
2023-02-06T10:33:35.814Z,11.10
2023-02-06T10:36:39.731Z,11.40
2023-02-06T10:39:24.952Z,12.10
2023-02-06T10:42:11.613Z,10.80
2023-02-06T10:44:53.748Z,11.50
2023-02-06T10:47:38.279Z,10.20
2023-02-06T10:50:28.493Z,17.90
2023-02-06T10:52:59.733Z,12.80
2023-02-06T10:55:29.988Z,12.60
2023-02-06T10:58:15.852Z,10.40
2023-02-06T11:00:45.596Z,11.40
2023-02-06T11:03:20.357Z,14.60
2023-02-06T11:05:47.167Z,18.70
2023-02-06T11:08:22.716Z,17.10
2023-02-06T11:10:49.592Z,12.40
2023-02-06T11:13:26.030Z,9.80
2023-02-06T11:16:04.572Z,10.60
2023-02-06T11:18:40.172Z,11.80
2023-02-06T11:21:09.401Z,17.90
2023-02-06T11:23:36.357Z,18.00
2023-02-06T11:26:18.240Z,24.10
2023-02-06T11:28:59.816Z,13.40
2023-02-06T11:31:51.944Z,10.00
2023-02-06T11:34:29.005Z,17.30
2023-02-06T11:36:58.923Z,12.20
2023-02-06T11:39:36.882Z,21.50
2023-02-06T11:42:25.763Z,12.10
2023-02-06T11:44:52.219Z,9.00
2023-02-06T11:47:45.245Z,8.70
2023-02-06T11:50:14.455Z,9.20
2023-02-06T11:52:43.931Z,8.90
2023-02-06T11:55:27.184Z,9.10
2023-02-06T11:58:12.487Z,16.90
2023-02-06T12:00:51.335Z,11.10
2023-02-06T12:03:26.857Z,15.50
2023-02-06T12:05:55.756Z,12.50
2023-02-06T12:08:27.085Z,8.90
2023-02-06T12:11:01.111Z,9.50
2023-02-06T12:13:37.996Z,12.00
2023-02-06T12:16:07.289Z,10.30
2023-02-06T12:18:41.917Z,10.30
2023-02-06T12:21:16.981Z,34.20
2023-02-06T12:23:49.658Z,14.70
2023-02-06T12:26:19.979Z,28.20
2023-02-06T12:29:13.147Z,17.80
2023-02-06T12:31:42.426Z,13.80
2023-02-06T12:34:19.991Z,15.50
2023-02-06T12:36:56.555Z,20.50
2023-02-06T12:39:23.668Z,21.60
2023-02-06T12:42:05.828Z,27.00
2023-02-06T12:44:51.250Z,13.10
2023-02-06T12:47:32.469Z,31.40
2023-02-06T12:50:15.247Z,16.90
2023-02-06T12:52:51.313Z,14.80
2023-02-06T12:55:29.873Z,26.10
2023-02-06T12:57:56.812Z,13.30
2023-02-06T13:00:38.993Z,13.60
2023-02-06T13:03:20.948Z,12.00
2023-02-06T13:05:51.741Z,17.20
2023-02-06T13:08:56.185Z,13.30
2023-02-06T13:11:38.364Z,12.90
2023-02-06T13:14:18.330Z,23.10
2023-02-06T13:16:55.204Z,15.50
2023-02-06T13:19:24.104Z,12.50
2023-02-06T13:22:10.817Z,22.30
2023-02-06T13:24:39.865Z,23.00
2023-02-06T13:27:09.065Z,16.70
2023-02-06T13:29:44.771Z,17.20
2023-02-06T13:32:11.141Z,19.00
2023-02-06T13:34:49.894Z,21.20
2023-02-06T13:37:32.416Z,16.20
2023-02-06T13:40:23.870Z,14.60
2023-02-06T13:43:14.381Z,17.50
2023-02-06T13:45:56.926Z,14.60
2023-02-06T13:48:35.706Z,14.60
2023-02-06T13:51:17.802Z,14.30
2023-02-06T13:54:13.831Z,13.90
2023-02-06T13:57:08.690Z,14.10
2023-02-06T13:59:41.087Z,11.20
2023-02-06T14:02:16.410Z,12.00
2023-02-06T14:04:45.870Z,13.70
2023-02-06T14:07:31.048Z,11.70
2023-02-06T14:10:16.396Z,14.90
2023-02-06T14:13:04.713Z,13.50
2023-02-06T14:15:40.970Z,12.20
2023-02-06T14:18:14.433Z,14.50
2023-02-06T14:21:31.762Z,20.00
2023-02-06T14:24:19.215Z,17.60
2023-02-06T14:26:45.728Z,15.20
2023-02-06T14:29:20.313Z,17.00
2023-02-06T14:31:49.798Z,13.70
2023-02-06T14:34:41.500Z,17.30
2023-02-06T14:37:27.905Z,25.60
2023-02-06T14:39:56.957Z,19.60
2023-02-06T14:42:40.560Z,30.40
2023-02-06T14:45:22.847Z,25.00
2023-02-06T14:47:50.464Z,31.70
2023-02-06T14:50:24.354Z,16.20
2023-02-06T14:52:55.546Z,19.20
2023-02-06T14:55:32.571Z,22.80
2023-02-06T14:57:59.816Z,20.20
2023-02-06T15:00:27.298Z,16.80
2023-02-06T15:03:21.423Z,19.20
2023-02-06T15:05:59.646Z,16.80
2023-02-06T15:08:26.309Z,21.10
2023-02-06T15:11:01.280Z,17.20
2023-02-06T15:13:30.551Z,19.80
2023-02-06T15:15:57.470Z,17.70
2023-02-06T15:18:24.344Z,18.00
2023-02-06T15:21:13.725Z,17.90
2023-02-06T15:23:46.105Z,17.70
2023-02-06T15:26:47.045Z,19.10
2023-02-06T15:29:23.315Z,21.10
2023-02-06T15:31:51.986Z,19.00
2023-02-06T15:34:22.230Z,14.40
2023-02-06T15:36:49.085Z,24.80
2023-02-06T15:39:17.775Z,21.70
2023-02-06T15:41:50.140Z,22.60
2023-02-06T15:44:22.796Z,25.40
2023-02-06T15:46:50.997Z,26.70
2023-02-06T15:49:26.392Z,30.10
2023-02-06T15:51:54.941Z,19.60
2023-02-06T15:54:25.345Z,17.90
2023-02-06T15:56:58.809Z,15.40
2023-02-06T15:59:26.721Z,22.70
2023-02-06T16:01:55.589Z,20.10
2023-02-06T16:04:27.923Z,26.60
2023-02-06T16:07:18.140Z,36.70
2023-02-06T16:09:55.993Z,18.80
2023-02-06T16:12:23.437Z,20.50
2023-02-06T16:15:01.163Z,22.70
2023-02-06T16:17:35.062Z,19.10
2023-02-06T16:20:25.698Z,53.30
2023-02-06T16:22:52.917Z,54.70
2023-02-06T16:25:22.315Z,30.80
2023-02-06T16:27:50.062Z,28.90
2023-02-06T16:30:24.911Z,22.60
2023-02-06T16:32:54.675Z,25.20
2023-02-06T16:35:22.683Z,39.10
2023-02-06T16:37:52.125Z,48.40
2023-02-06T16:40:19.056Z,76.80
2023-02-06T16:42:46.633Z,90.00
2023-02-06T16:45:24.656Z,123.50
2023-02-06T16:47:51.247Z,83.00
2023-02-06T16:50:18.570Z,112.70
2023-02-06T16:52:54.277Z,112.70
2023-02-06T16:55:23.611Z,65.10
2023-02-06T16:57:54.842Z,33.10
2023-02-06T17:00:24.906Z,34.00
2023-02-06T17:02:52.546Z,34.10
2023-02-06T17:05:21.332Z,33.70
2023-02-06T17:07:48.696Z,41.50
2023-02-06T17:10:16.735Z,39.50
2023-02-06T17:12:43.710Z,42.20
2023-02-06T17:15:13.506Z,40.70
2023-02-06T17:17:40.540Z,46.40
2023-02-06T17:20:28.090Z,44.70
2023-02-06T17:22:54.949Z,54.40
2023-02-06T17:25:21.796Z,52.30
2023-02-06T17:27:48.369Z,56.10
2023-02-06T17:30:19.954Z,68.40
2023-02-06T17:35:13.703Z,61.50
2023-02-06T17:37:40.231Z,53.50
2023-02-06T17:40:08.248Z,48.40
2023-02-06T17:42:34.751Z,47.80
2023-02-06T17:45:01.384Z,47.40
2023-02-06T17:47:28.182Z,46.90
2023-02-06T17:49:54.809Z,50.00
2023-02-06T17:52:21.511Z,48.40
2023-02-06T17:54:47.967Z,47.50
2023-02-06T17:57:14.485Z,45.50
2023-02-06T17:59:41.157Z,49.80
2023-02-06T18:02:12.248Z,53.70
2023-02-06T18:04:39.019Z,55.10
2023-02-06T18:07:07.001Z,56.10
2023-02-06T18:09:33.730Z,55.30
2023-02-06T18:12:00.590Z,60.00
2023-02-06T18:14:27.323Z,71.50
2023-02-06T18:16:54.064Z,77.00
2023-02-06T18:19:20.915Z,82.70
2023-02-06T18:21:47.401Z,110.60
2023-02-06T18:24:14.093Z,93.70
2023-02-06T18:26:40.659Z,91.80
2023-02-06T18:29:07.093Z,82.40
2023-02-06T18:31:35.978Z,84.60
2023-02-06T18:34:05.070Z,75.70
2023-02-06T18:36:31.655Z,90.40
2023-02-06T18:38:58.442Z,79.20
2023-02-06T18:41:26.442Z,77.80
2023-02-06T18:43:52.959Z,67.50
2023-02-06T18:46:19.454Z,70.90
2023-02-06T18:48:46.453Z,80.30
2023-02-06T18:51:13.195Z,77.50
2023-02-06T18:53:39.833Z,73.60
2023-02-06T18:56:06.891Z,88.30
2023-02-06T18:58:33.835Z,81.90
2023-02-06T19:01:00.617Z,156.40
2023-02-06T19:03:27.186Z,157.60
2023-02-06T19:05:53.871Z,114.20
2023-02-06T19:08:20.406Z,132.80
2023-02-06T19:10:46.877Z,175.60
2023-02-06T19:13:13.588Z,138.50
2023-02-06T19:15:40.331Z,153.70
2023-02-06T19:18:07.178Z,133.70
2023-02-06T19:20:33.938Z,122.40
2023-02-06T19:23:00.416Z,118.00
2023-02-06T19:25:27.050Z,130.50
2023-02-06T19:27:54.053Z,135.50
2023-02-06T19:30:20.782Z,124.30
2023-02-06T19:32:47.550Z,122.70
2023-02-06T19:35:14.038Z,132.10
2023-02-06T19:37:40.726Z,111.30
2023-02-06T19:40:07.586Z,111.00
2023-02-06T19:42:34.355Z,104.10
2023-02-06T19:45:01.263Z,98.30
2023-02-06T19:47:28.115Z,123.30
2023-02-06T19:49:54.852Z,102.20
2023-02-06T19:52:21.800Z,94.20
2023-02-06T19:54:48.685Z,101.80
2023-02-06T19:57:15.459Z,114.30
2023-02-06T19:59:41.919Z,102.70
2023-02-06T20:02:13.077Z,97.60
2023-02-06T20:04:40.327Z,96.10
2023-02-06T20:07:07.265Z,130.20
2023-02-06T20:09:34.472Z,137.90
2023-02-06T20:12:00.952Z,140.20
2023-02-06T20:14:28.202Z,149.10
2023-02-06T20:16:54.946Z,144.20
2023-02-06T20:19:25.437Z,147.60
2023-02-06T20:21:58.099Z,156.20
2023-02-06T20:24:29.192Z,166.60
2023-02-06T20:26:59.792Z,143.00
2023-02-06T20:29:29.502Z,155.90
2023-02-06T20:31:57.200Z,170.00
2023-02-06T20:34:26.554Z,151.00
2023-02-06T20:36:53.859Z,146.20
2023-02-06T20:39:20.540Z,137.90
2023-02-06T20:41:49.050Z,149.50
2023-02-06T20:44:16.369Z,143.70
2023-02-06T20:46:43.319Z,143.50
2023-02-06T20:49:18.947Z,135.80
2023-02-06T20:51:45.730Z,134.00
2023-02-06T20:54:12.402Z,136.70
2023-02-06T20:56:41.310Z,153.00
2023-02-06T20:59:08.724Z,169.80
2023-02-06T21:01:35.440Z,153.40
2023-02-06T21:04:07.659Z,120.50
2023-02-06T21:06:36.009Z,95.40
2023-02-06T21:09:04.908Z,93.10
2023-02-06T21:11:34.441Z,93.40
2023-02-06T21:14:03.690Z,97.60
2023-02-06T21:16:32.170Z,99.60
2023-02-06T21:18:59.995Z,113.10
2023-02-06T21:21:27.204Z,119.50
2023-02-06T21:23:54.706Z,122.20
2023-02-06T21:26:21.858Z,138.00
2023-02-06T21:28:48.316Z,153.50
2023-02-06T21:31:18.516Z,152.30
2023-02-06T21:33:46.734Z,137.90
2023-02-06T21:36:13.818Z,137.90
2023-02-06T21:38:41.091Z,145.60
2023-02-06T21:41:14.206Z,145.10
2023-02-06T21:43:41.153Z,149.20
2023-02-06T21:46:07.944Z,153.90
2023-02-06T21:48:35.078Z,162.80
2023-02-06T21:51:12.747Z,150.70
2023-02-06T21:53:40.133Z,145.70
2023-02-06T21:56:09.110Z,155.00
2023-02-06T21:58:36.538Z,177.70
2023-02-06T22:01:03.893Z,139.90
2023-02-06T22:03:30.360Z,162.80
2023-02-06T22:06:02.351Z,147.10
2023-02-06T22:08:29.076Z,142.90
2023-02-06T22:10:55.618Z,130.90
2023-02-06T22:13:22.158Z,141.40
2023-02-06T22:15:49.138Z,143.50
2023-02-06T22:18:15.566Z,143.00
2023-02-06T22:20:42.084Z,141.90
2023-02-06T22:23:08.622Z,139.90
2023-02-06T22:25:37.019Z,130.20
2023-02-06T22:28:03.787Z,141.40
2023-02-06T22:30:30.481Z,129.30
2023-02-06T22:32:56.964Z,140.90
2023-02-06T22:35:23.460Z,138.30
2023-02-06T22:37:50.001Z,153.40
2023-02-06T22:40:16.994Z,133.20
2023-02-06T22:42:43.489Z,133.70
2023-02-06T22:45:10.279Z,146.30
2023-02-06T22:47:36.728Z,148.80
2023-02-06T22:50:04.032Z,135.90
2023-02-06T22:52:30.579Z,148.00
2023-02-06T22:54:56.987Z,131.80
2023-02-06T22:57:23.548Z,129.50
2023-02-06T22:59:50.081Z,129.80
2023-02-06T23:02:16.773Z,144.90
2023-02-06T23:04:43.384Z,129.30
2023-02-06T23:07:10.021Z,125.20
2023-02-06T23:09:38.080Z,113.20
2023-02-06T23:12:05.968Z,110.80
2023-02-06T23:14:33.402Z,111.70
2023-02-06T23:17:01.105Z,111.30
2023-02-06T23:19:28.439Z,107.80
2023-02-06T23:21:55.185Z,106.60
2023-02-06T23:24:21.893Z,106.40
2023-02-06T23:26:50.487Z,109.10
2023-02-06T23:29:19.281Z,105.30
2023-02-06T23:31:47.323Z,108.70
2023-02-06T23:34:15.042Z,105.00
2023-02-06T23:36:41.573Z,101.20
2023-02-06T23:39:08.064Z,99.40
2023-02-06T23:41:34.965Z,105.90
2023-02-06T23:44:04.223Z,99.90
2023-02-06T23:46:32.766Z,101.00
2023-02-06T23:48:59.780Z,135.20
2023-02-06T23:51:26.789Z,109.50
2023-02-06T23:53:53.782Z,107.70
2023-02-06T23:56:23.682Z,115.00
2023-02-06T23:58:51.394Z,119.20
